Time;durP1;ratioP1;P1;durP2;ratioP2;P2;SDS_P1;SDS_P2;PMS_P1;PMS_P2;Temp;Humidity;BMP_temperature;BMP_pressure;BME280_temperature;BME280_humidity;BME280_pressure;Samples;Min_cycle;Max_cycle;Signal;HPM_P1;HPM_P2
2023/07/28 00:00:13;;;;;;;4.25;3.17;;;;;;;14.15;100.00;95326.34;1026401;28;20093;-74
2023/07/28 00:00:43;;;;;;;5.38;3.30;;;;;;;14.15;100.00;95326.34;1026097;28;20492;-75
2023/07/28 00:01:14;;;;;;;4.63;3.22;;;;;;;14.16;100.00;95321.84;1026769;28;20027;-75
2023/07/28 00:01:44;;;;;;;6.30;3.42;;;;;;;14.15;100.00;95320.28;1022982;28;20019;-76
2023/07/28 00:02:15;;;;;;;5.05;3.75;;;;;;;14.10;100.00;95302.69;1026499;28;20504;-74
2023/07/28 00:02:45;;;;;;;6.07;3.65;;;;;;;14.09;100.00;95308.28;1018620;29;20031;-75
2023/07/28 00:03:16;;;;;;;6.45;3.38;;;;;;;14.18;100.00;95322.31;1018691;29;20023;-77
2023/07/28 00:03:46;;;;;;;4.95;3.75;;;;;;;14.19;100.00;95317.84;1018634;29;21672;-77
2023/07/28 00:04:16;;;;;;;5.15;3.40;;;;;;;14.12;100.00;95305.06;1018608;29;20034;-74
2023/07/28 00:04:47;;;;;;;4.38;3.53;;;;;;;14.19;100.00;95317.84;1009539;29;20053;-77
2023/07/28 00:05:17;;;;;;;4.88;3.40;;;;;;;14.14;100.00;95313.44;1018534;29;20027;-75
2023/07/28 00:05:48;;;;;;;3.95;3.28;;;;;;;14.20;100.00;95320.19;1014800;29;20031;-75
2023/07/28 00:06:19;;;;;;;9.88;3.50;;;;;;;14.13;100.00;95306.63;1015030;29;20016;-74
2023/07/28 00:06:49;;;;;;;6.63;3.67;;;;;;;14.22;100.00;95320.69;1018661;29;20525;-75
2023/07/28 00:07:20;;;;;;;4.93;3.75;;;;;;;14.22;100.00;95319.88;1022588;28;20464;-76
2023/07/28 00:07:50;;;;;;;7.40;3.50;;;;;;;14.22;100.00;95314.59;1026487;28;20030;-75
2023/07/28 00:08:21;;;;;;;7.82;3.85;;;;;;;14.22;100.00;95315.41;1022694;28;20039;-75
2023/07/28 00:08:51;;;;;;;4.95;3.45;;;;;;;14.22;100.00;95314.59;1018411;29;20020;-77
2023/07/28 00:09:23;;;;;;;5.18;3.55;;;;;;;14.21;100.00;95311.19;1018809;29;20520;-74
2023/07/28 00:09:53;;;;;;;4.90;3.50;;;;;;;14.23;100.00;95314.31;1018616;29;20397;-76
2023/07/28 00:10:24;;;;;;;5.72;3.70;;;;;;;14.19;100.00;95305.44;1018245;28;20020;-77
2023/07/28 00:10:54;;;;;;;4.78;3.60;;;;;;;14.21;100.00;95313.03;1025563;28;20023;-75
2023/07/28 00:11:24;;;;;;;6.50;3.55;;;;;;;14.21;100.00;95311.19;1022389;28;20030;-77
2023/07/28 00:11:59;;;;;;;5.43;3.40;;;;;;;14.11;100.00;95296.34;1018478;29;20016;-75
2023/07/28 00:12:29;;;;;;;5.22;3.22;;;;;;;14.14;100.00;95297.59;1016782;29;20505;-76
2023/07/28 00:13:01;;;;;;;4.40;3.20;;;;;;;14.19;100.00;95310.72;1018462;29;20019;-77
2023/07/28 00:13:31;;;;;;;6.80;3.58;;;;;;;14.22;100.00;95309.31;1022731;29;20106;-77
2023/07/28 00:14:01;;;;;;;4.68;3.42;;;;;;;14.14;100.00;95302.88;1026613;28;20023;-75
2023/07/28 00:14:32;;;;;;;5.60;3.30;;;;;;;14.22;100.00;95310.13;1028457;28;20152;-75
2023/07/28 00:15:03;;;;;;;6.82;3.70;;;;;;;14.23;100.00;95313.53;1029681;28;20053;-76
2023/07/28 00:15:33;;;;;;;4.47;3.30;;;;;;;14.21;100.00;95310.41;1027112;28;20011;-75
2023/07/28 00:16:04;;;;;;;6.15;3.40;;;;;;;14.19;100.00;95304.66;1018784;29;20024;-74
2023/07/28 00:16:35;;;;;;;6.78;3.30;;;;;;;14.23;100.00;95311.69;1018709;29;20074;-76
2023/07/28 00:17:05;;;;;;;3.35;2.90;;;;;;;14.21;100.00;95313.03;1018767;29;20054;-75
2023/07/28 00:17:36;;;;;;;4.82;3.13;;;;;;;14.24;100.00;95309.81;1022493;29;20020;-77
2023/07/28 00:18:06;;;;;;;4.32;3.75;;;;;;;14.26;100.00;95311.09;1022454;29;20019;-75
2023/07/28 00:18:37;;;;;;;4.55;3.67;;;;;;;14.27;100.00;95307.38;1022716;29;20026;-76
2023/07/28 00:19:07;;;;;;;6.53;3.95;;;;;;;14.23;100.00;95300.34;1022536;28;20677;-76
2023/07/28 00:19:37;;;;;;;3.90;3.50;;;;;;;14.28;100.00;95306.28;1018691;29;20016;-74
2023/07/28 00:20:08;;;;;;;4.07;3.13;;;;;;;14.29;100.00;95310.50;1022677;28;20023;-76
2023/07/28 00:20:39;;;;;;;6.35;3.42;;;;;;;14.24;100.00;95305.31;1025962;28;20026;-75
2023/07/28 00:21:09;;;;;;;5.72;3.53;;;;;;;14.24;100.00;95297.41;1022447;28;20019;-75
2023/07/28 00:21:40;;;;;;;8.55;3.50;;;;;;;14.23;100.00;95300.34;1026725;28;20854;-76
2023/07/28 00:22:10;;;;;;;5.03;3.20;;;;;;;14.28;100.00;95310.78;1018601;29;20026;-75
2023/07/28 00:22:41;;;;;;;4.55;3.55;;;;;;;14.22;100.00;95294.28;1022755;28;20030;-73
2023/07/28 00:23:11;;;;;;;4.95;3.33;;;;;;;14.29;100.00;95299.16;1022387;29;20074;-75
2023/07/28 00:23:41;;;;;;;4.15;3.08;;;;;;;14.33;100.00;95302.78;1014817;29;20080;-75
2023/07/28 00:24:12;;;;;;;7.40;4.78;;;;;;;14.34;100.00;95312.25;1018681;29;20487;-74
2023/07/28 00:24:42;;;;;;;4.65;3.40;;;;;;;14.34;100.00;95299.81;1022496;29;20023;-76
2023/07/28 00:25:13;;;;;;;4.47;3.40;;;;;;;14.29;100.00;95293.88;1018559;28;20031;-76
2023/07/28 00:25:43;;;;;;;3.67;3.13;;;;;;;14.34;100.00;95299.81;1022707;29;20030;-72
2023/07/28 00:26:14;;;;;;;6.28;3.40;;;;;;;14.27;100.00;95288.88;1022501;28;20019;-73
2023/07/28 00:26:44;;;;;;;4.20;3.42;;;;;;;14.35;100.00;95301.41;1014849;29;20023;-74
2023/07/28 00:27:15;;;;;;;7.80;3.10;;;;;;;14.33;100.00;95290.34;1014561;29;20079;-74
2023/07/28 00:27:45;;;;;;;3.08;2.78;;;;;;;14.35;100.00;95297.97;1022725;28;20488;-74
2023/07/28 00:28:15;;;;;;;4.82;3.40;;;;;;;14.34;100.00;95297.19;1026644;28;20019;-74
2023/07/28 00:28:46;;;;;;;6.05;3.38;;;;;;;14.28;100.00;95287.81;1022664;29;20612;-73
2023/07/28 00:29:16;;;;;;;6.07;3.60;;;;;;;14.33;100.00;95290.34;1018713;29;20038;-74
2023/07/28 00:29:47;;;;;;;4.00;3.35;;;;;;;14.34;100.00;95291.91;1022419;29;20015;-74
2023/07/28 00:30:17;;;;;;;3.70;3.40;;;;;;;14.34;100.00;95297.19;1022747;28;20026;-74
2023/07/28 00:30:51;;;;;;;4.88;3.42;;;;;;;14.32;100.00;95288.78;1025851;28;20107;-74
2023/07/28 00:31:21;;;;;;;4.75;3.28;;;;;;;14.31;100.00;95287.22;1026328;28;20011;-73
2023/07/28 00:31:52;;;;;;;6.70;3.50;;;;;;;14.33;100.00;95287.72;1022478;29;20562;-74
2023/07/28 00:32:23;;;;;;;6.18;2.92;;;;;;;14.31;100.00;95286.44;1022554;29;20649;-74
2023/07/28 00:32:53;;;;;;;3.70;2.95;;;;;;;14.31;100.00;95286.44;1022358;29;20034;-76
2023/07/28 00:33:24;;;;;;;4.47;3.20;;;;;;;14.32;100.00;95288.03;1018803;29;20526;-75
2023/07/28 00:33:54;;;;;;;5.97;3.75;;;;;;;14.32;100.00;95283.53;1022473;28;20393;-77
2023/07/28 00:34:25;;;;;;;4.22;3.13;;;;;;;14.29;100.00;95286.75;1018682;29;20063;-74
2023/07/28 00:34:55;;;;;;;4.80;3.30;;;;;;;14.29;100.00;95283.34;1021529;28;20053;-73
2023/07/28 00:35:25;;;;;;;5.82;4.07;;;;;;;14.29;100.00;95289.38;1026587;28;20097;-73
2023/07/28 00:35:56;;;;;;;4.35;3.17;;;;;;;14.25;100.00;95280.50;1030535;28;20023;-73
2023/07/28 00:36:26;;;;;;;3.85;2.95;;;;;;;14.26;100.00;95283.91;1030411;28;20044;-76
2023/07/28 00:36:57;;;;;;;3.10;2.80;;;;;;;14.25;100.00;95290.25;1022587;28;20059;-77
2023/07/28 00:37:27;;;;;;;8.23;3.65;;;;;;;14.25;100.00;95292.91;1018613;29;20027;-73
2023/07/28 00:37:58;;;;;;;3.88;3.28;;;;;;;14.24;100.00;95292.13;1018513;29;20077;-73
2023/07/28 00:38:28;;;;;;;3.33;3.03;;;;;;;14.23;100.00;95293.22;1022570;28;20023;-74
2023/07/28 00:38:59;;;;;;;4.30;3.42;;;;;;;14.17;100.00;95280.41;1022699;28;20019;-76
2023/07/28 00:39:29;;;;;;;5.05;3.47;;;;;;;14.21;100.00;95290.06;1026451;28;20025;-76
2023/07/28 00:40:00;;;;;;;5.28;3.25;;;;;;;14.16;100.00;95284.91;1026351;28;20027;-75
2023/07/28 00:40:30;;;;;;;3.95;3.22;;;;;;;14.19;100.00;95288.81;1022014;29;20082;-74
2023/07/28 00:41:01;;;;;;;6.72;3.45;;;;;;;14.17;100.00;95286.47;1018593;29;20032;-77
2023/07/28 00:41:31;;;;;;;6.20;3.53;;;;;;;14.19;100.00;95289.59;1019895;29;20024;-76
2023/07/28 00:42:02;;;;;;;3.95;3.17;;;;;;;14.18;100.00;95282.75;1018636;29;20351;-74
2023/07/28 00:42:32;;;;;;;4.13;3.30;;;;;;;14.21;100.00;95286.66;1018640;29;20024;-76
2023/07/28 00:43:02;;;;;;;4.25;2.53;;;;;;;14.18;100.00;95284.59;1022452;28;20035;-78
2023/07/28 00:43:33;;;;;;;6.00;3.17;;;;;;;14.20;100.00;95285.88;1022616;28;20034;-76
2023/07/28 00:44:03;;;;;;;7.40;3.13;;;;;;;14.20;100.00;95287.75;1022474;29;20031;-76
2023/07/28 00:44:34;;;;;;;8.80;3.65;;;;;;;14.19;100.00;95283.56;1018636;29;20075;-74
2023/07/28 00:45:05;;;;;;;6.47;3.03;;;;;;;14.12;100.00;95281.31;1022603;28;20039;-75
2023/07/28 00:45:35;;;;;;;5.00;3.10;;;;;;;14.15;100.00;95284.13;1018773;29;20028;-76
2023/07/28 00:46:06;;;;;;;4.25;3.22;;;;;;;14.18;100.00;95288.03;1022738;28;20037;-75
2023/07/28 00:46:36;;;;;;;4.85;2.90;;;;;;;14.16;100.00;95284.91;1023932;28;20015;-74
2023/07/28 00:47:07;;;;;;;4.55;3.20;;;;;;;14.08;100.00;95272.41;1022622;28;20027;-74
2023/07/28 00:47:37;;;;;;;4.13;3.08;;;;;;;14.14;100.00;95284.41;1018661;29;20029;-75
2023/07/28 00:48:12;;;;;;;9.35;3.03;;;;;;;13.98;100.00;95264.69;1018607;29;20016;-74
2023/07/28 00:48:43;;;;;;;7.13;2.88;;;;;;;14.11;100.00;95285.00;1018696;29;20031;-74
2023/07/28 00:49:13;;;;;;;4.78;3.30;;;;;;;14.11;100.00;95288.41;1022511;29;20027;-73
2023/07/28 00:49:44;;;;;;;7.85;3.35;;;;;;;14.08;100.00;95283.75;1023354;28;20035;-76
2023/07/28 00:50:14;;;;;;;5.13;3.05;;;;;;;14.09;100.00;95287.19;1026247;28;20034;-75
2023/07/28 00:50:45;;;;;;;6.85;3.10;;;;;;;14.06;100.00;95285.13;1014049;29;20032;-74
2023/07/28 00:51:15;;;;;;;6.90;3.47;;;;;;;14.08;100.00;95282.97;1022554;29;20023;-76
2023/07/28 00:51:45;;;;;;;7.40;3.40;;;;;;;14.08;100.00;95275.03;1022408;28;20110;-75
2023/07/28 00:52:16;;;;;;;6.18;3.38;;;;;;;14.12;100.00;95284.72;1014609;29;20064;-73
2023/07/28 00:52:46;;;;;;;5.85;2.88;;;;;;;14.15;100.00;95291.25;1018409;29;20043;-73
2023/07/28 00:53:17;;;;;;;6.90;3.20;;;;;;;14.16;100.00;95290.19;1022503;28;20023;-75
2023/07/28 00:53:47;;;;;;;5.07;3.08;;;;;;;14.17;100.00;95291.75;1022606;29;20485;-75
2023/07/28 00:54:18;;;;;;;3.85;2.97;;;;;;;14.15;100.00;95283.34;1022450;29;20046;-75
2023/07/28 00:54:48;;;;;;;5.38;3.20;;;;;;;14.22;100.00;95291.66;1022653;29;20114;-76
2023/07/28 00:55:19;;;;;;;5.32;3.35;;;;;;;14.20;100.00;95285.88;1022625;28;20608;-75
2023/07/28 00:55:49;;;;;;;5.85;3.15;;;;;;;14.20;100.00;95285.88;1014610;29;20084;-74
2023/07/28 00:56:20;;;;;;;4.10;3.15;;;;;;;14.26;100.00;95287.34;1014584;29;20036;-74
2023/07/28 00:56:51;;;;;;;3.30;2.97;;;;;;;14.20;100.00;95280.59;1018410;29;20079;-74
2023/07/28 00:57:21;;;;;;;3.70;3.00;;;;;;;14.18;100.00;95281.97;1022636;29;20031;-75
2023/07/28 00:57:52;;;;;;;4.07;3.35;;;;;;;14.16;100.00;95284.91;1018496;28;20039;-74
2023/07/28 00:58:22;;;;;;;4.70;3.70;;;;;;;14.24;100.00;95286.84;1018467;29;20035;-74
2023/07/28 00:58:53;;;;;;;4.25;2.72;;;;;;;14.24;100.00;95291.34;1018519;29;20086;-74
2023/07/28 00:59:23;;;;;;;4.03;2.97;;;;;;;14.19;100.00;95276.41;1018806;28;20042;-76
2023/07/28 00:59:54;;;;;;;4.93;3.10;;;;;;;14.22;100.00;95283.72;1022551;28;20031;-76
2023/07/28 01:00:24;;;;;;;6.00;3.42;;;;;;;14.23;100.00;95285.28;1021892;28;20027;-74
2023/07/28 01:00:55;;;;;;;4.18;3.30;;;;;;;14.24;100.00;95281.56;1022316;29;20023;-75
2023/07/28 01:01:25;;;;;;;6.25;3.65;;;;;;;14.27;100.00;95285.47;1018652;29;20030;-76
2023/07/28 01:01:55;;;;;;;3.28;2.67;;;;;;;14.29;100.00;95292.03;1014423;29;20039;-74
2023/07/28 01:02:26;;;;;;;4.82;3.25;;;;;;;14.32;100.00;95283.53;1014723;29;20478;-74
2023/07/28 01:02:57;;;;;;;6.45;3.58;;;;;;;14.34;100.00;95286.63;1014474;29;20574;-73
2023/07/28 01:03:27;;;;;;;8.43;3.80;;;;;;;14.32;100.00;95280.09;1014554;29;20024;-75
2023/07/28 01:03:58;;;;;;;4.88;2.95;;;;;;;14.37;100.00;95287.91;1018640;29;20030;-74
2023/07/28 01:04:29;;;;;;;5.03;3.28;;;;;;;14.42;100.00;95287.00;1022469;29;20015;-74
2023/07/28 01:04:59;;;;;;;3.58;2.83;;;;;;;14.36;100.00;95276.56;1020804;29;20019;-75
2023/07/28 01:06:01;;;;;;;3.63;3.10;;;;;;;14.42;100.00;95287.00;1022403;28;20019;-75
2023/07/28 01:06:44;;;;;;;3.97;2.72;;;;;;;14.44;100.00;95277.69;1026466;28;20034;-74
2023/07/28 01:07:17;;;;;;;3.35;2.47;;;;;;;14.43;100.00;95278.78;1023955;28;20020;-75
2023/07/28 01:07:54;;;;;;;4.35;2.90;;;;;;;14.39;100.00;95283.09;1026408;28;20638;-74
2023/07/28 01:08:37;;;;;;;4.15;2.45;;;;;;;14.41;100.00;95272.25;1014581;29;20091;-74
2023/07/28 01:09:16;;;;;;;3.17;2.47;;;;;;;14.43;100.00;95276.16;1014423;29;20063;-76
2023/07/28 01:09:50;;;;;;;4.93;2.88;;;;;;;14.16;100.00;95237.41;1018555;29;20027;-74
2023/07/28 01:10:29;;;;;;;4.18;2.85;;;;;;;14.42;100.00;95271.16;1022053;29;20045;-74
2023/07/28 01:11:00;;;;;;;3.92;3.00;;;;;;;14.47;100.00;95274.47;1021960;29;20030;-74
2023/07/28 01:11:30;;;;;;;4.53;3.03;;;;;;;14.44;100.00;95269.00;1022358;29;20054;-76
2023/07/28 01:12:01;;;;;;;5.38;2.85;;;;;;;14.48;100.00;95272.59;1021292;29;20023;-74
2023/07/28 01:12:32;;;;;;;5.35;2.97;;;;;;;14.48;100.00;95277.88;1022077;28;20485;-76
2023/07/28 01:13:02;;;;;;;3.85;2.75;;;;;;;14.37;100.00;95264.13;1026284;28;20019;-75
2023/07/28 01:13:34;;;;;;;8.32;3.53;;;;;;;14.45;100.00;95273.19;1022491;29;20532;-75
2023/07/28 01:14:04;;;;;;;3.28;2.85;;;;;;;14.46;100.00;95275.56;1014859;29;20533;-74
2023/07/28 01:14:35;;;;;;;3.97;2.88;;;;;;;14.37;100.00;95259.63;1017423;29;20046;-75
2023/07/28 01:15:06;;;;;;;5.47;3.03;;;;;;;14.40;100.00;95266.19;1017974;28;20429;-73
2023/07/28 01:15:36;;;;;;;3.83;3.10;;;;;;;14.47;100.00;95266.56;1022822;28;20034;-74
2023/07/28 01:16:07;;;;;;;4.82;2.50;;;;;;;14.49;100.00;95266.28;1028356;28;20019;-74
2023/07/28 01:16:37;;;;;;;5.20;2.92;;;;;;;14.53;100.00;95272.53;1022301;29;20397;-74
2023/07/28 01:17:08;;;;;;;15.77;3.20;;;;;;;14.52;100.00;95270.97;1018214;29;20032;-75
2023/07/28 01:17:38;;;;;;;12.63;2.78;;;;;;;14.47;100.00;95260.50;1022328;29;20031;-75
2023/07/28 01:18:09;;;;;;;3.15;2.85;;;;;;;14.44;100.00;95253.94;1014079;29;20028;-76
2023/07/28 01:18:39;;;;;;;3.80;2.95;;;;;;;14.46;100.00;95262.34;1018539;29;20019;-76
2023/07/28 01:19:10;;;;;;;3.97;3.00;;;;;;;14.52;100.00;95270.97;1022324;28;20015;-75
2023/07/28 01:19:40;;;;;;;3.35;2.67;;;;;;;14.53;100.00;95275.19;1030220;28;20014;-75
2023/07/28 01:20:11;;;;;;;5.97;3.00;;;;;;;14.53;100.00;95273.31;1025950;28;20022;-75
2023/07/28 01:20:41;;;;;;;4.05;3.00;;;;;;;14.53;100.00;95270.66;1017817;29;20122;-74
2023/07/28 01:21:16;;;;;;;6.80;2.78;;;;;;;14.50;100.00;95263.34;1016026;29;20021;-75
2023/07/28 01:21:53;;;;;;;4.22;3.05;;;;;;;14.48;100.00;95259.41;1015196;29;20132;-74
2023/07/28 01:22:42;;;;;;;4.05;3.20;;;;;;;14.52;100.00;95271.75;1018455;29;20016;-76
2023/07/28 01:23:48;;;;;;;4.03;2.95;;;;;;;14.49;100.00;95264.41;1018121;29;20050;-73
2023/07/28 01:24:21;;;;;;;6.47;2.70;;;;;;;14.48;100.00;95267.31;1030081;28;20026;-74
2023/07/28 01:25:23;;;;;;;3.38;2.47;;;;;;;14.46;100.00;95265.00;1022276;28;20019;-75
2023/07/28 01:25:55;;;;;;;;;;;;;;;14.42;100.00;95271.97;1018853;28;20101;-74
2023/07/28 01:26:36;;;;;;;4.70;3.17;;;;;;;14.38;100.00;95263.84;1018446;29;19976;-76
2023/07/28 01:27:07;;;;;;;5.65;2.97;;;;;;;14.39;100.00;95260.13;1010594;29;20020;-74
2023/07/28 01:27:37;;;;;;;3.90;3.17;;;;;;;14.38;100.00;95266.50;1010545;29;20058;-76
2023/07/28 01:28:08;;;;;;;5.95;2.90;;;;;;;14.36;100.00;95268.63;1013555;29;20031;-74
2023/07/28 01:28:39;;;;;;;4.43;2.85;;;;;;;14.33;100.00;95258.69;1018535;29;20520;-74
2023/07/28 01:29:10;;;;;;;3.40;2.30;;;;;;;14.33;100.00;95261.31;1018340;29;20023;-74
2023/07/28 01:29:40;;;;;;;5.57;3.15;;;;;;;14.32;100.00;95265.03;1014411;29;20024;-74
2023/07/28 01:30:11;;;;;;;6.40;2.92;;;;;;;14.25;100.00;95248.84;1010651;29;20073;-74
2023/07/28 01:30:41;;;;;;;5.20;2.83;;;;;;;14.32;100.00;95262.41;1013902;29;20453;-74
2023/07/28 01:31:12;;;;;;;3.63;2.90;;;;;;;14.33;100.00;95263.19;1019295;28;20027;-75
2023/07/28 01:31:42;;;;;;;3.75;2.88;;;;;;;14.26;100.00;95252.25;1018383;29;20028;-74
2023/07/28 01:32:13;;;;;;;3.72;2.60;;;;;;;14.31;100.00;95266.09;1018432;29;20032;-76
2023/07/28 01:32:43;;;;;;;4.63;3.08;;;;;;;14.30;100.00;95263.78;1014675;29;20032;-73
2023/07/28 01:33:13;;;;;;;6.65;2.90;;;;;;;14.29;100.00;95267.50;1022085;29;20042;-73
2023/07/28 01:33:44;;;;;;;4.07;2.92;;;;;;;14.26;100.00;95268.88;1022336;28;20047;-75
2023/07/28 01:34:15;;;;;;;4.65;2.83;;;;;;;14.19;100.00;95265.84;1010653;29;20032;-75
2023/07/28 01:34:46;;;;;;;5.20;2.75;;;;;;;14.23;100.00;95268.69;1016425;29;20861;-76
2023/07/28 01:35:17;;;;;;;6.22;3.00;;;;;;;14.24;100.00;95271.00;1022351;29;20046;-75
2023/07/28 01:35:48;;;;;;;3.45;2.75;;;;;;;14.20;100.00;95264.00;1018261;29;20393;-75
2023/07/28 01:36:18;;;;;;;4.75;3.00;;;;;;;14.23;100.00;95269.47;1018317;29;20028;-74
2023/07/28 01:36:49;;;;;;;4.93;2.70;;;;;;;14.22;100.00;95273.19;1014452;29;20032;-77
2023/07/28 01:37:19;;;;;;;4.15;2.90;;;;;;;14.20;100.00;95264.00;1018294;28;20753;-74
2023/07/28 01:37:53;;;;;;;4.80;2.80;;;;;;;14.17;100.00;95259.31;1018370;29;20063;-73
2023/07/28 01:38:23;;;;;;;5.68;3.00;;;;;;;14.19;100.00;95267.72;1025731;28;20023;-76
2023/07/28 01:38:54;;;;;;;4.20;3.00;;;;;;;14.18;100.00;95271.41;1026797;28;20070;-77
2023/07/28 01:39:24;;;;;;;5.18;2.80;;;;;;;14.18;100.00;95276.69;1026377;28;20042;-74
2023/07/28 01:39:55;;;;;;;4.35;2.83;;;;;;;14.15;100.00;95278.06;1022696;28;20043;-75
2023/07/28 01:40:26;;;;;;;6.03;3.05;;;;;;;14.11;100.00;95266.53;1025888;28;20023;-74
2023/07/28 01:40:56;;;;;;;4.90;2.83;;;;;;;14.17;100.00;95275.13;1022458;28;20090;-73
2023/07/28 01:41:27;;;;;;;5.13;3.00;;;;;;;14.16;100.00;95279.63;1017364;29;20035;-73
2023/07/28 01:41:58;;;;;;;4.82;2.67;;;;;;;14.14;100.00;95269.38;1014687;29;20038;-75
2023/07/28 01:42:28;;;;;;;5.47;2.70;;;;;;;14.13;100.00;95280.22;1018537;29;20027;-74
2023/07/28 01:42:59;;;;;;;5.60;2.85;;;;;;;14.10;100.00;95280.81;1018471;28;20032;-74
2023/07/28 01:43:29;;;;;;;3.92;3.20;;;;;;;14.08;100.00;95275.03;1022247;28;20042;-73
2023/07/28 01:43:59;;;;;;;4.68;3.15;;;;;;;14.01;100.00;95261.47;1022418;29;20481;-75
2023/07/28 01:44:30;;;;;;;5.55;3.10;;;;;;;14.06;100.00;95275.34;1022445;28;20780;-74
2023/07/28 01:45:00;;;;;;;3.25;2.70;;;;;;;13.98;100.00;95273.38;1025644;28;20045;-75
2023/07/28 01:45:31;;;;;;;4.95;2.80;;;;;;;14.05;100.00;95279.06;1028449;28;20125;-74
2023/07/28 01:46:01;;;;;;;3.65;2.70;;;;;;;14.03;100.00;95270.66;1025576;28;20027;-74
2023/07/28 01:46:32;;;;;;;7.47;2.95;;;;;;;14.04;100.00;95271.44;1028409;28;20114;-74
2023/07/28 01:47:02;;;;;;;4.75;2.85;;;;;;;14.05;100.00;95281.72;1030369;28;20035;-74
2023/07/28 01:47:33;;;;;;;3.53;2.75;;;;;;;14.07;100.00;95276.13;1033518;28;20046;-76
2023/07/28 01:48:03;;;;;;;4.20;2.92;;;;;;;14.05;100.00;95275.63;1034415;28;20026;-74
2023/07/28 01:48:34;;;;;;;4.05;3.10;;;;;;;14.01;100.00;95266.75;1030124;28;20050;-75
2023/07/28 01:49:04;;;;;;;3.53;2.85;;;;;;;13.99;100.00;95263.66;1018497;29;20034;-74
2023/07/28 01:49:35;;;;;;;5.88;2.90;;;;;;;13.97;100.00;95261.28;1018515;29;20135;-74
2023/07/28 01:50:06;;;;;;;4.85;3.00;;;;;;;13.97;100.00;95257.88;1018626;29;20453;-75
2023/07/28 01:50:36;;;;;;;3.80;2.88;;;;;;;14.00;100.00;95270.47;1014117;29;20032;-75
2023/07/28 01:51:07;;;;;;;6.07;3.17;;;;;;;14.00;100.00;95273.88;1010561;29;20025;-75
2023/07/28 01:51:37;;;;;;;6.03;3.08;;;;;;;13.96;100.00;95256.31;1015822;29;20031;-74
2023/07/28 01:52:08;;;;;;;5.90;3.10;;;;;;;13.99;100.00;95268.91;1018312;29;20526;-75
2023/07/28 01:52:38;;;;;;;3.55;2.85;;;;;;;13.99;100.00;95266.28;1014633;29;20323;-76
2023/07/28 01:53:09;;;;;;;3.58;3.17;;;;;;;14.01;100.00;95272.03;1014219;29;20028;-74
2023/07/28 01:53:39;;;;;;;3.92;2.45;;;;;;;14.00;100.00;95259.91;1014544;29;20083;-74
2023/07/28 01:54:10;;;;;;;5.00;2.90;;;;;;;13.91;100.00;95252.69;1016786;29;20028;-75
2023/07/28 01:54:40;;;;;;;3.13;2.83;;;;;;;14.04;100.00;95266.16;1014532;29;20024;-74
2023/07/28 01:55:11;;;;;;;3.90;2.80;;;;;;;14.03;100.00;95262.75;1024063;28;20027;-74
2023/07/28 01:55:41;;;;;;;6.85;3.00;;;;;;;14.01;100.00;95256.19;1026266;28;20023;-74
2023/07/28 01:56:12;;;;;;;5.90;2.80;;;;;;;14.05;100.00;95265.88;1022390;28;20070;-75
2023/07/28 01:56:42;;;;;;;4.22;3.33;;;;;;;14.08;100.00;95259.22;1026212;28;20042;-76
2023/07/28 01:57:12;;;;;;;2.97;2.58;;;;;;;14.08;100.00;95261.84;1026167;28;20029;-76
2023/07/28 01:57:50;;;;;;;3.53;2.65;;;;;;;14.08;100.00;95264.50;1018579;29;20036;-75
2023/07/28 01:58:21;;;;;;;4.20;3.00;;;;;;;14.08;100.00;95267.13;1018249;29;20126;-75
2023/07/28 01:58:51;;;;;;;4.80;2.70;;;;;;;14.00;100.00;95254.66;1019178;28;20387;-74
2023/07/28 01:59:22;;;;;;;3.55;2.72;;;;;;;14.06;100.00;95267.44;1018561;29;20020;-76
2023/07/28 01:59:53;;;;;;;3.83;2.95;;;;;;;14.00;100.00;95259.91;1017984;28;20047;-75
2023/07/28 02:00:24;;;;;;;3.20;2.50;;;;;;;14.06;100.00;95264.03;1017675;29;20020;-73
2023/07/28 02:00:54;;;;;;;5.25;2.75;;;;;;;14.06;100.00;95271.94;1017951;29;20127;-74
2023/07/28 02:01:25;;;;;;;5.28;2.60;;;;;;;14.07;100.00;95270.84;1014336;29;20028;-75
2023/07/28 02:01:55;;;;;;;3.85;3.08;;;;;;;14.06;100.00;95270.06;1015660;29;20044;-74
2023/07/28 02:02:25;;;;;;;3.38;2.72;;;;;;;14.07;100.00;95269.00;1014372;29;20020;-74
2023/07/28 02:02:57;;;;;;;3.38;2.75;;;;;;;14.06;100.00;95266.66;1014450;29;20028;-74
2023/07/28 02:03:28;;;;;;;3.17;2.70;;;;;;;14.09;100.00;95274.00;1018655;28;20027;-74
2023/07/28 02:03:58;;;;;;;2.95;2.53;;;;;;;14.09;100.00;95274.75;1025439;28;20035;-74
2023/07/28 02:04:29;;;;;;;4.53;3.40;;;;;;;14.08;100.00;95280.31;1018291;28;20023;-75
2023/07/28 02:04:59;;;;;;;6.22;3.30;;;;;;;14.07;100.00;95276.91;1014737;29;20032;-76
2023/07/28 02:05:30;;;;;;;5.88;2.90;;;;;;;14.07;100.00;95281.41;1018130;29;20120;-75
2023/07/28 02:06:00;;;;;;;3.65;3.08;;;;;;;14.05;100.00;95273.00;1014582;28;20031;-74
2023/07/28 02:06:31;;;;;;;3.90;2.95;;;;;;;14.06;100.00;95274.56;1015315;29;20050;-74
2023/07/28 02:07:02;;;;;;;5.88;3.13;;;;;;;14.05;100.00;95278.28;1018338;29;20031;-73
2023/07/28 02:07:32;;;;;;;6.63;3.15;;;;;;;14.01;100.00;95274.66;1022059;29;20030;-74
2023/07/28 02:08:03;;;;;;;3.85;3.00;;;;;;;14.00;100.00;95281.03;1026392;28;20081;-75
2023/07/28 02:08:33;;;;;;;3.53;2.70;;;;;;;13.91;100.00;95271.16;1022336;28;20114;-76
2023/07/28 02:09:04;;;;;;;3.47;2.75;;;;;;;13.96;100.00;95277.41;1022182;29;20035;-76
2023/07/28 02:09:34;;;;;;;4.45;2.70;;;;;;;13.94;100.00;95282.97;1018332;29;20394;-74
2023/07/28 02:10:05;;;;;;;5.03;2.95;;;;;;;13.91;100.00;95279.06;1018545;29;20101;-75
2023/07/28 02:10:35;;;;;;;3.92;2.78;;;;;;;13.87;100.00;95278.09;1021773;28;20094;-77
2023/07/28 02:11:06;;;;;;;3.20;2.90;;;;;;;13.85;100.00;95282.91;1028976;28;20483;-75
2023/07/28 02:11:36;;;;;;;5.50;2.88;;;;;;;13.84;100.00;95286.59;1018389;29;20027;-74
2023/07/28 02:12:07;;;;;;;4.38;2.88;;;;;;;13.83;100.00;95282.41;1018502;29;20026;-73
2023/07/28 02:12:38;;;;;;;4.32;3.13;;;;;;;13.80;100.00;95285.63;1023701;28;20063;-74
2023/07/28 02:13:08;;;;;;;3.45;2.70;;;;;;;13.76;100.00;95282.03;1022191;29;20031;-74
2023/07/28 02:13:39;;;;;;;7.18;3.00;;;;;;;13.66;100.00;95271.66;1018389;29;20020;-74
2023/07/28 02:14:09;;;;;;;5.18;3.03;;;;;;;13.71;100.00;95284.75;1018287;29;20026;-74
2023/07/28 02:14:39;;;;;;;3.15;2.72;;;;;;;13.68;100.00;95280.03;1013052;29;20079;-74
2023/07/28 02:15:10;;;;;;;3.95;3.28;;;;;;;13.66;100.00;95287.50;1018128;29;20742;-76
2023/07/28 02:15:40;;;;;;;5.50;3.15;;;;;;;13.58;100.00;95272.34;1014325;28;20024;-74
2023/07/28 02:16:11;;;;;;;3.10;2.80;;;;;;;13.63;100.00;95282.78;1022065;28;20027;-75
2023/07/28 02:16:41;;;;;;;3.92;2.85;;;;;;;13.63;100.00;95282.78;1026278;28;20081;-74
2023/07/28 02:17:12;;;;;;;4.25;2.72;;;;;;;13.63;100.00;95288.06;1022121;28;20035;-74
2023/07/28 02:17:42;;;;;;;5.80;3.00;;;;;;;13.61;100.00;95283.06;1022066;28;20034;-76
2023/07/28 02:18:13;;;;;;;3.75;2.83;;;;;;;13.56;100.00;95274.50;1026069;28;20421;-75
2023/07/28 02:18:43;;;;;;;6.78;3.60;;;;;;;13.57;100.00;95276.06;1018292;29;20028;-74
2023/07/28 02:19:13;;;;;;;5.43;3.05;;;;;;;13.58;100.00;95274.97;1022166;29;20023;-74
2023/07/28 02:19:44;;;;;;;5.57;2.72;;;;;;;13.58;100.00;95285.50;1018249;28;20031;-75
2023/07/28 02:20:15;;;;;;;3.65;3.05;;;;;;;13.51;100.00;95282.50;1014335;29;20020;-74
2023/07/28 02:20:48;;;;;;;5.15;3.03;;;;;;;13.50;100.00;95278.28;1013959;29;20024;-75
2023/07/28 02:21:19;;;;;;;4.85;3.33;;;;;;;13.57;100.00;95283.97;1021796;28;20027;-73
2023/07/28 02:21:49;;;;;;;5.45;3.20;;;;;;;13.52;100.00;95276.16;1017828;29;20028;-73
2023/07/28 02:22:20;;;;;;;4.40;2.80;;;;;;;13.56;100.00;95285.03;1018062;29;20027;-75
2023/07/28 02:22:50;;;;;;;6.18;3.15;;;;;;;13.50;100.00;95273.03;1014625;29;20068;-74
2023/07/28 02:23:20;;;;;;;5.03;3.15;;;;;;;13.55;100.00;95286.13;1015124;29;20032;-76
2023/07/28 02:23:51;;;;;;;4.68;2.60;;;;;;;13.54;100.00;95284.53;1014945;29;20032;-74
2023/07/28 02:24:21;;;;;;;3.13;2.50;;;;;;;13.53;100.00;95280.34;1018548;29;20071;-73
2023/07/28 02:24:52;;;;;;;7.53;3.22;;;;;;;13.53;100.00;95280.34;1018506;29;20020;-76
2023/07/28 02:25:22;;;;;;;3.50;3.13;;;;;;;13.44;100.00;95270.47;1018528;29;20028;-73